Upper Darby, Pennsylvania
Current Conditions -  °F | °C
As of 10:54 AM on Thursday 23 Oct 2014 (Local Time) from KPHL Reporting Station
Light Rain Light Rain  
Wind Chill: 52°   Ceiling: 5500
Heat Index: 52°   Visibility: 10mi
Dew Point: 47°   Wind: 23mph
Humidity: 83%   Direction: 320°NW
Pressure: 29.79"   Gusts: 28mph
Location:  39.93°N, 75.27°W
Report Text: KPHL 231454Z 32020G24KT 10SM -RA FEW015 BKN055 OVC075 11/08 A2979 RMK AO2 RAB06 SLP086 60000 T01110083 52004 PNO $
Loading
Personal Weather Stations






























Interactive Weather Map
Tropical Storm Tracking
New forecast layout! Learn more

10-Day Weather Forecast

Advertisements
Track Severe Weather on mobile